sensor_id;sensor_type;location;lat;lon;timestamp;P1;durP1;ratioP1;P2;durP2;ratioP2
11854;SDS011;5987;53.140;8.904;2022-12-11T00:01:22;21.13;;;12.17;;
11854;SDS011;5987;53.140;8.904;2022-12-11T00:04:26;23.03;;;12.23;;
11854;SDS011;5987;53.140;8.904;2022-12-11T00:07:30;19.03;;;11.87;;
11854;SDS011;5987;53.140;8.904;2022-12-11T00:10:33;19.37;;;12.37;;
11854;SDS011;5987;53.140;8.904;2022-12-11T00:13:40;18.17;;;10.47;;
11854;SDS011;5987;53.140;8.904;2022-12-11T00:16:43;20.63;;;12.60;;
11854;SDS011;5987;53.140;8.904;2022-12-11T00:19:50;23.13;;;12.70;;
11854;SDS011;5987;53.140;8.904;2022-12-11T00:22:54;17.07;;;11.83;;
11854;SDS011;5987;53.140;8.904;2022-12-11T00:25:57;19.60;;;12.27;;
11854;SDS011;5987;53.140;8.904;2022-12-11T00:29:02;19.97;;;11.90;;
11854;SDS011;5987;53.140;8.904;2022-12-11T00:32:06;18.00;;;12.03;;
11854;SDS011;5987;53.140;8.904;2022-12-11T00:35:09;18.77;;;11.07;;
11854;SDS011;5987;53.140;8.904;2022-12-11T00:38:14;21.20;;;11.67;;
11854;SDS011;5987;53.140;8.904;2022-12-11T00:41:19;18.97;;;12.23;;
11854;SDS011;5987;53.140;8.904;2022-12-11T00:44:25;21.23;;;11.43;;
11854;SDS011;5987;53.140;8.904;2022-12-11T00:47:28;18.77;;;11.90;;
11854;SDS011;5987;53.140;8.904;2022-12-11T00:50:33;18.13;;;11.33;;
11854;SDS011;5987;53.140;8.904;2022-12-11T00:53:37;17.80;;;11.90;;
11854;SDS011;5987;53.140;8.904;2022-12-11T00:56:41;19.77;;;12.00;;
11854;SDS011;5987;53.140;8.904;2022-12-11T00:59:46;16.00;;;11.03;;
11854;SDS011;5987;53.140;8.904;2022-12-11T01:02:50;19.07;;;11.77;;
11854;SDS011;5987;53.140;8.904;2022-12-11T01:05:54;20.17;;;12.10;;
11854;SDS011;5987;53.140;8.904;2022-12-11T01:08:57;18.53;;;11.43;;
11854;SDS011;5987;53.140;8.904;2022-12-11T01:12:18;21.50;;;12.10;;
11854;SDS011;5987;53.140;8.904;2022-12-11T01:15:25;17.87;;;11.67;;
11854;SDS011;5987;53.140;8.904;2022-12-11T01:18:30;21.53;;;11.90;;
11854;SDS011;5987;53.140;8.904;2022-12-11T01:21:34;18.57;;;10.90;;
11854;SDS011;5987;53.140;8.904;2022-12-11T01:24:38;22.00;;;12.47;;
11854;SDS011;5987;53.140;8.904;2022-12-11T01:27:41;18.70;;;11.33;;
11854;SDS011;5987;53.140;8.904;2022-12-11T01:30:46;18.23;;;11.37;;
11854;SDS011;5987;53.140;8.904;2022-12-11T01:33:52;17.10;;;11.03;;
11854;SDS011;5987;53.140;8.904;2022-12-11T01:36:56;18.17;;;11.40;;
11854;SDS011;5987;53.140;8.904;2022-12-11T01:40:01;20.07;;;11.20;;
11854;SDS011;5987;53.140;8.904;2022-12-11T01:43:09;21.73;;;12.40;;
11854;SDS011;5987;53.140;8.904;2022-12-11T01:46:15;17.33;;;11.53;;
11854;SDS011;5987;53.140;8.904;2022-12-11T01:49:19;18.20;;;11.60;;
11854;SDS011;5987;53.140;8.904;2022-12-11T01:52:27;20.97;;;12.30;;
11854;SDS011;5987;53.140;8.904;2022-12-11T01:55:31;20.43;;;12.00;;
11854;SDS011;5987;53.140;8.904;2022-12-11T01:58:38;22.90;;;12.60;;
11854;SDS011;5987;53.140;8.904;2022-12-11T02:01:50;18.90;;;12.17;;
11854;SDS011;5987;53.140;8.904;2022-12-11T02:05:01;21.07;;;13.43;;
11854;SDS011;5987;53.140;8.904;2022-12-11T02:08:07;19.23;;;12.20;;
11854;SDS011;5987;53.140;8.904;2022-12-11T02:11:13;22.80;;;12.03;;
11854;SDS011;5987;53.140;8.904;2022-12-11T02:14:25;21.47;;;12.43;;
11854;SDS011;5987;53.140;8.904;2022-12-11T02:17:42;20.17;;;12.73;;
11854;SDS011;5987;53.140;8.904;2022-12-11T02:20:54;21.77;;;13.13;;
11854;SDS011;5987;53.140;8.904;2022-12-11T02:24:21;22.37;;;12.27;;
11854;SDS011;5987;53.140;8.904;2022-12-11T02:27:49;19.90;;;12.10;;
11854;SDS011;5987;53.140;8.904;2022-12-11T02:31:09;22.07;;;12.10;;
11854;SDS011;5987;53.140;8.904;2022-12-11T02:34:24;20.07;;;12.37;;
11854;SDS011;5987;53.140;8.904;2022-12-11T02:37:36;20.97;;;12.53;;
11854;SDS011;5987;53.140;8.904;2022-12-11T02:40:45;20.43;;;12.73;;
11854;SDS011;5987;53.140;8.904;2022-12-11T02:43:55;19.63;;;12.87;;
11854;SDS011;5987;53.140;8.904;2022-12-11T02:47:00;19.73;;;12.33;;
11854;SDS011;5987;53.140;8.904;2022-12-11T02:50:10;22.93;;;13.50;;
11854;SDS011;5987;53.140;8.904;2022-12-11T02:53:21;21.33;;;12.67;;
11854;SDS011;5987;53.140;8.904;2022-12-11T02:56:35;19.47;;;12.13;;
11854;SDS011;5987;53.140;8.904;2022-12-11T03:00:00;18.63;;;12.27;;
11854;SDS011;5987;53.140;8.904;2022-12-11T03:03:06;20.23;;;11.77;;
11854;SDS011;5987;53.140;8.904;2022-12-11T03:06:10;22.03;;;12.37;;
11854;SDS011;5987;53.140;8.904;2022-12-11T03:09:20;19.47;;;11.73;;
11854;SDS011;5987;53.140;8.904;2022-12-11T03:12:26;18.63;;;12.67;;
11854;SDS011;5987;53.140;8.904;2022-12-11T03:15:35;24.63;;;13.47;;
11854;SDS011;5987;53.140;8.904;2022-12-11T03:19:01;23.07;;;12.53;;
11854;SDS011;5987;53.140;8.904;2022-12-11T03:22:19;22.87;;;13.20;;
11854;SDS011;5987;53.140;8.904;2022-12-11T03:25:34;20.83;;;12.50;;
11854;SDS011;5987;53.140;8.904;2022-12-11T03:28:48;21.70;;;12.43;;
11854;SDS011;5987;53.140;8.904;2022-12-11T03:32:03;21.00;;;12.87;;
11854;SDS011;5987;53.140;8.904;2022-12-11T03:35:15;23.10;;;12.27;;
11854;SDS011;5987;53.140;8.904;2022-12-11T03:38:27;23.63;;;14.23;;
11854;SDS011;5987;53.140;8.904;2022-12-11T03:41:39;19.40;;;12.43;;
11854;SDS011;5987;53.140;8.904;2022-12-11T03:44:46;19.43;;;11.43;;
11854;SDS011;5987;53.140;8.904;2022-12-11T03:47:54;19.63;;;11.60;;
11854;SDS011;5987;53.140;8.904;2022-12-11T03:51:01;21.73;;;12.73;;
11854;SDS011;5987;53.140;8.904;2022-12-11T03:54:08;19.60;;;11.83;;
11854;SDS011;5987;53.140;8.904;2022-12-11T03:57:14;19.10;;;12.33;;
11854;SDS011;5987;53.140;8.904;2022-12-11T04:00:24;20.73;;;12.13;;
11854;SDS011;5987;53.140;8.904;2022-12-11T04:03:29;20.10;;;12.47;;
11854;SDS011;5987;53.140;8.904;2022-12-11T04:06:33;21.23;;;11.97;;
11854;SDS011;5987;53.140;8.904;2022-12-11T04:09:37;20.03;;;12.37;;
11854;SDS011;5987;53.140;8.904;2022-12-11T04:12:40;20.53;;;12.17;;
11854;SDS011;5987;53.140;8.904;2022-12-11T04:15:44;23.27;;;12.83;;
11854;SDS011;5987;53.140;8.904;2022-12-11T04:18:49;17.60;;;11.03;;
11854;SDS011;5987;53.140;8.904;2022-12-11T04:22:24;20.80;;;12.97;;
11854;SDS011;5987;53.140;8.904;2022-12-11T04:25:45;20.87;;;12.30;;
11854;SDS011;5987;53.140;8.904;2022-12-11T04:28:49;21.27;;;12.23;;
11854;SDS011;5987;53.140;8.904;2022-12-11T04:31:52;23.77;;;13.00;;
11854;SDS011;5987;53.140;8.904;2022-12-11T04:34:58;22.63;;;12.03;;
11854;SDS011;5987;53.140;8.904;2022-12-11T04:38:01;21.67;;;12.77;;
11854;SDS011;5987;53.140;8.904;2022-12-11T04:41:06;22.50;;;13.37;;
11854;SDS011;5987;53.140;8.904;2022-12-11T04:44:12;22.10;;;12.17;;
11854;SDS011;5987;53.140;8.904;2022-12-11T04:47:16;22.33;;;12.63;;
11854;SDS011;5987;53.140;8.904;2022-12-11T04:50:21;21.80;;;12.57;;
11854;SDS011;5987;53.140;8.904;2022-12-11T04:53:24;24.23;;;12.83;;
11854;SDS011;5987;53.140;8.904;2022-12-11T04:56:29;19.00;;;12.10;;
11854;SDS011;5987;53.140;8.904;2022-12-11T04:59:32;21.37;;;12.57;;
11854;SDS011;5987;53.140;8.904;2022-12-11T05:02:36;21.30;;;11.77;;
11854;SDS011;5987;53.140;8.904;2022-12-11T05:05:47;18.77;;;11.10;;
11854;SDS011;5987;53.140;8.904;2022-12-11T05:08:52;22.67;;;12.17;;
11854;SDS011;5987;53.140;8.904;2022-12-11T05:11:55;21.50;;;12.07;;
11854;SDS011;5987;53.140;8.904;2022-12-11T05:14:59;21.07;;;12.20;;
11854;SDS011;5987;53.140;8.904;2022-12-11T05:18:03;20.40;;;12.00;;
11854;SDS011;5987;53.140;8.904;2022-12-11T05:21:08;18.97;;;11.87;;
11854;SDS011;5987;53.140;8.904;2022-12-11T05:24:15;19.37;;;11.90;;
11854;SDS011;5987;53.140;8.904;2022-12-11T05:27:19;21.43;;;12.20;;
11854;SDS011;5987;53.140;8.904;2022-12-11T05:30:22;18.97;;;10.97;;
11854;SDS011;5987;53.140;8.904;2022-12-11T05:33:26;20.20;;;11.13;;
11854;SDS011;5987;53.140;8.904;2022-12-11T05:36:32;21.87;;;11.77;;
11854;SDS011;5987;53.140;8.904;2022-12-11T05:39:36;19.90;;;11.50;;
11854;SDS011;5987;53.140;8.904;2022-12-11T05:42:40;18.07;;;11.37;;
11854;SDS011;5987;53.140;8.904;2022-12-11T05:45:44;19.03;;;11.10;;
11854;SDS011;5987;53.140;8.904;2022-12-11T05:48:48;22.63;;;12.33;;
11854;SDS011;5987;53.140;8.904;2022-12-11T05:51:56;20.00;;;11.40;;
11854;SDS011;5987;53.140;8.904;2022-12-11T05:55:00;20.83;;;10.97;;
11854;SDS011;5987;53.140;8.904;2022-12-11T05:58:04;20.63;;;11.40;;
11854;SDS011;5987;53.140;8.904;2022-12-11T06:01:08;18.43;;;11.50;;
11854;SDS011;5987;53.140;8.904;2022-12-11T06:04:14;18.77;;;12.00;;
11854;SDS011;5987;53.140;8.904;2022-12-11T06:07:19;19.07;;;11.50;;
11854;SDS011;5987;53.140;8.904;2022-12-11T06:10:22;20.10;;;11.73;;
11854;SDS011;5987;53.140;8.904;2022-12-11T06:13:26;25.67;;;12.63;;
11854;SDS011;5987;53.140;8.904;2022-12-11T06:16:30;18.77;;;11.37;;
11854;SDS011;5987;53.140;8.904;2022-12-11T06:19:38;20.33;;;12.13;;
11854;SDS011;5987;53.140;8.904;2022-12-11T06:22:43;20.60;;;12.07;;
11854;SDS011;5987;53.140;8.904;2022-12-11T06:25:47;22.20;;;11.70;;
11854;SDS011;5987;53.140;8.904;2022-12-11T06:28:51;22.83;;;12.30;;
11854;SDS011;5987;53.140;8.904;2022-12-11T06:31:55;19.43;;;12.40;;
11854;SDS011;5987;53.140;8.904;2022-12-11T06:34:59;20.43;;;12.00;;
11854;SDS011;5987;53.140;8.904;2022-12-11T06:38:04;21.97;;;12.10;;
11854;SDS011;5987;53.140;8.904;2022-12-11T06:41:08;23.37;;;12.87;;
11854;SDS011;5987;53.140;8.904;2022-12-11T06:44:14;23.27;;;12.43;;
11854;SDS011;5987;53.140;8.904;2022-12-11T06:47:17;23.77;;;13.20;;
11854;SDS011;5987;53.140;8.904;2022-12-11T06:50:21;23.07;;;11.67;;
11854;SDS011;5987;53.140;8.904;2022-12-11T06:53:26;19.53;;;11.13;;
11854;SDS011;5987;53.140;8.904;2022-12-11T06:56:29;19.27;;;11.77;;
11854;SDS011;5987;53.140;8.904;2022-12-11T06:59:35;23.27;;;13.23;;
11854;SDS011;5987;53.140;8.904;2022-12-11T07:02:39;20.00;;;11.83;;
11854;SDS011;5987;53.140;8.904;2022-12-11T07:05:43;21.17;;;11.90;;
11854;SDS011;5987;53.140;8.904;2022-12-11T07:08:48;20.93;;;11.67;;
11854;SDS011;5987;53.140;8.904;2022-12-11T07:11:52;20.40;;;11.90;;
11854;SDS011;5987;53.140;8.904;2022-12-11T07:14:56;20.97;;;12.40;;
11854;SDS011;5987;53.140;8.904;2022-12-11T07:17:59;21.30;;;12.37;;
11854;SDS011;5987;53.140;8.904;2022-12-11T07:21:03;20.73;;;12.50;;
11854;SDS011;5987;53.140;8.904;2022-12-11T07:24:09;20.07;;;12.00;;
11854;SDS011;5987;53.140;8.904;2022-12-11T07:27:12;20.90;;;12.77;;
11854;SDS011;5987;53.140;8.904;2022-12-11T07:30:16;20.67;;;12.60;;
11854;SDS011;5987;53.140;8.904;2022-12-11T07:33:20;21.50;;;12.90;;
11854;SDS011;5987;53.140;8.904;2022-12-11T07:36:24;21.80;;;12.43;;
11854;SDS011;5987;53.140;8.904;2022-12-11T07:39:30;20.20;;;12.30;;
11854;SDS011;5987;53.140;8.904;2022-12-11T07:42:34;21.17;;;13.20;;
11854;SDS011;5987;53.140;8.904;2022-12-11T07:45:44;23.33;;;13.30;;
11854;SDS011;5987;53.140;8.904;2022-12-11T07:48:48;21.23;;;12.40;;
11854;SDS011;5987;53.140;8.904;2022-12-11T07:51:53;18.20;;;11.87;;
11854;SDS011;5987;53.140;8.904;2022-12-11T07:54:58;23.47;;;12.93;;
11854;SDS011;5987;53.140;8.904;2022-12-11T07:58:02;20.87;;;11.73;;
11854;SDS011;5987;53.140;8.904;2022-12-11T08:01:09;21.43;;;12.00;;
11854;SDS011;5987;53.140;8.904;2022-12-11T08:04:14;24.57;;;11.97;;
11854;SDS011;5987;53.140;8.904;2022-12-11T08:07:18;20.47;;;11.57;;
11854;SDS011;5987;53.140;8.904;2022-12-11T08:10:23;21.97;;;11.43;;
11854;SDS011;5987;53.140;8.904;2022-12-11T08:13:26;18.03;;;10.13;;
11854;SDS011;5987;53.140;8.904;2022-12-11T08:16:30;21.43;;;12.47;;
11854;SDS011;5987;53.140;8.904;2022-12-11T08:19:34;23.73;;;12.50;;
11854;SDS011;5987;53.140;8.904;2022-12-11T08:22:38;20.93;;;12.07;;
11854;SDS011;5987;53.140;8.904;2022-12-11T08:25:43;20.63;;;12.00;;
11854;SDS011;5987;53.140;8.904;2022-12-11T08:28:46;20.20;;;11.97;;
11854;SDS011;5987;53.140;8.904;2022-12-11T08:31:50;19.80;;;11.97;;
11854;SDS011;5987;53.140;8.904;2022-12-11T08:34:54;24.50;;;12.03;;
11854;SDS011;5987;53.140;8.904;2022-12-11T08:37:57;20.07;;;11.43;;
11854;SDS011;5987;53.140;8.904;2022-12-11T08:41:07;16.33;;;9.97;;
11854;SDS011;5987;53.140;8.904;2022-12-11T08:44:13;20.17;;;11.60;;
11854;SDS011;5987;53.140;8.904;2022-12-11T08:47:17;22.43;;;11.93;;
11854;SDS011;5987;53.140;8.904;2022-12-11T08:50:21;18.13;;;10.90;;
11854;SDS011;5987;53.140;8.904;2022-12-11T08:53:25;18.33;;;10.90;;
11854;SDS011;5987;53.140;8.904;2022-12-11T08:56:30;20.50;;;12.27;;
11854;SDS011;5987;53.140;8.904;2022-12-11T08:59:35;19.30;;;10.90;;
11854;SDS011;5987;53.140;8.904;2022-12-11T09:02:39;19.07;;;10.93;;
11854;SDS011;5987;53.140;8.904;2022-12-11T09:05:43;23.87;;;12.93;;
11854;SDS011;5987;53.140;8.904;2022-12-11T09:08:47;19.13;;;11.27;;
11854;SDS011;5987;53.140;8.904;2022-12-11T09:11:55;22.60;;;12.33;;
11854;SDS011;5987;53.140;8.904;2022-12-11T09:14:59;20.73;;;11.40;;
11854;SDS011;5987;53.140;8.904;2022-12-11T09:18:03;22.60;;;12.13;;
11854;SDS011;5987;53.140;8.904;2022-12-11T09:21:08;22.50;;;11.93;;
11854;SDS011;5987;53.140;8.904;2022-12-11T09:24:14;23.17;;;12.53;;
11854;SDS011;5987;53.140;8.904;2022-12-11T09:27:19;21.70;;;11.47;;
11854;SDS011;5987;53.140;8.904;2022-12-11T09:30:23;24.07;;;11.97;;
11854;SDS011;5987;53.140;8.904;2022-12-11T09:33:26;20.97;;;11.40;;
11854;SDS011;5987;53.140;8.904;2022-12-11T09:36:31;30.47;;;12.03;;
11854;SDS011;5987;53.140;8.904;2022-12-11T09:39:35;21.23;;;11.63;;
11854;SDS011;5987;53.140;8.904;2022-12-11T09:42:45;20.87;;;12.60;;
11854;SDS011;5987;53.140;8.904;2022-12-11T09:45:54;23.03;;;12.40;;
11854;SDS011;5987;53.140;8.904;2022-12-11T09:49:01;22.53;;;12.00;;
11854;SDS011;5987;53.140;8.904;2022-12-11T09:52:09;22.30;;;12.03;;
11854;SDS011;5987;53.140;8.904;2022-12-11T09:55:19;20.33;;;12.30;;
11854;SDS011;5987;53.140;8.904;2022-12-11T09:58:29;23.30;;;12.67;;
11854;SDS011;5987;53.140;8.904;2022-12-11T10:01:49;24.00;;;12.67;;
11854;SDS011;5987;53.140;8.904;2022-12-11T10:05:04;23.40;;;12.27;;
11854;SDS011;5987;53.140;8.904;2022-12-11T10:08:22;20.40;;;11.40;;
11854;SDS011;5987;53.140;8.904;2022-12-11T10:11:47;21.37;;;12.07;;
11854;SDS011;5987;53.140;8.904;2022-12-11T10:15:34;24.67;;;12.80;;
11854;SDS011;5987;53.140;8.904;2022-12-11T10:18:44;25.03;;;12.57;;
11854;SDS011;5987;53.140;8.904;2022-12-11T10:21:50;21.57;;;11.90;;
11854;SDS011;5987;53.140;8.904;2022-12-11T10:24:55;21.97;;;12.33;;
11854;SDS011;5987;53.140;8.904;2022-12-11T10:28:17;22.07;;;12.07;;
11854;SDS011;5987;53.140;8.904;2022-12-11T10:31:26;21.17;;;12.10;;
11854;SDS011;5987;53.140;8.904;2022-12-11T10:34:41;21.67;;;13.20;;
11854;SDS011;5987;53.140;8.904;2022-12-11T10:37:51;23.40;;;13.07;;
11854;SDS011;5987;53.140;8.904;2022-12-11T10:41:03;22.73;;;12.07;;
11854;SDS011;5987;53.140;8.904;2022-12-11T10:44:14;22.27;;;11.60;;
11854;SDS011;5987;53.140;8.904;2022-12-11T10:47:21;22.90;;;12.07;;
11854;SDS011;5987;53.140;8.904;2022-12-11T10:50:25;23.93;;;12.37;;
11854;SDS011;5987;53.140;8.904;2022-12-11T10:53:29;22.70;;;12.57;;
11854;SDS011;5987;53.140;8.904;2022-12-11T10:56:35;23.43;;;13.67;;
11854;SDS011;5987;53.140;8.904;2022-12-11T11:00:25;24.10;;;13.13;;
11854;SDS011;5987;53.140;8.904;2022-12-11T11:03:52;25.30;;;13.07;;
11854;SDS011;5987;53.140;8.904;2022-12-11T11:07:01;21.20;;;12.13;;
11854;SDS011;5987;53.140;8.904;2022-12-11T11:10:15;24.37;;;12.93;;
11854;SDS011;5987;53.140;8.904;2022-12-11T11:13:21;23.70;;;13.60;;
11854;SDS011;5987;53.140;8.904;2022-12-11T11:16:26;24.07;;;13.77;;
11854;SDS011;5987;53.140;8.904;2022-12-11T11:19:32;23.60;;;13.30;;
11854;SDS011;5987;53.140;8.904;2022-12-11T11:22:39;24.50;;;13.03;;
11854;SDS011;5987;53.140;8.904;2022-12-11T11:25:48;26.97;;;14.03;;
11854;SDS011;5987;53.140;8.904;2022-12-11T11:28:56;22.47;;;13.07;;
11854;SDS011;5987;53.140;8.904;2022-12-11T11:32:01;22.03;;;12.83;;
11854;SDS011;5987;53.140;8.904;2022-12-11T11:35:22;22.27;;;12.93;;
11854;SDS011;5987;53.140;8.904;2022-12-11T11:38:28;21.60;;;11.77;;
11854;SDS011;5987;53.140;8.904;2022-12-11T11:41:39;22.50;;;12.30;;
11854;SDS011;5987;53.140;8.904;2022-12-11T11:44:56;26.53;;;13.30;;
11854;SDS011;5987;53.140;8.904;2022-12-11T11:48:10;25.93;;;14.00;;
11854;SDS011;5987;53.140;8.904;2022-12-11T11:51:32;26.17;;;13.20;;
11854;SDS011;5987;53.140;8.904;2022-12-11T11:54:42;20.40;;;12.00;;
11854;SDS011;5987;53.140;8.904;2022-12-11T11:57:54;24.90;;;13.73;;
11854;SDS011;5987;53.140;8.904;2022-12-11T12:01:09;22.73;;;13.47;;
11854;SDS011;5987;53.140;8.904;2022-12-11T12:04:17;23.53;;;12.93;;
11854;SDS011;5987;53.140;8.904;2022-12-11T12:07:26;23.53;;;12.80;;
11854;SDS011;5987;53.140;8.904;2022-12-11T12:10:42;24.60;;;13.00;;
11854;SDS011;5987;53.140;8.904;2022-12-11T12:13:58;23.87;;;13.27;;
11854;SDS011;5987;53.140;8.904;2022-12-11T12:17:36;27.70;;;13.30;;
11854;SDS011;5987;53.140;8.904;2022-12-11T12:20:58;40.23;;;14.70;;
11854;SDS011;5987;53.140;8.904;2022-12-11T12:24:16;27.50;;;14.00;;
11854;SDS011;5987;53.140;8.904;2022-12-11T12:27:37;29.60;;;14.50;;
11854;SDS011;5987;53.140;8.904;2022-12-11T12:30:57;25.77;;;14.77;;
11854;SDS011;5987;53.140;8.904;2022-12-11T12:34:22;52.43;;;23.50;;
11854;SDS011;5987;53.140;8.904;2022-12-11T12:37:45;33.80;;;16.63;;
11854;SDS011;5987;53.140;8.904;2022-12-11T12:41:01;27.97;;;15.47;;
11854;SDS011;5987;53.140;8.904;2022-12-11T12:44:21;30.30;;;15.83;;
11854;SDS011;5987;53.140;8.904;2022-12-11T12:47:27;26.50;;;14.43;;
11854;SDS011;5987;53.140;8.904;2022-12-11T12:50:37;34.43;;;17.17;;
11854;SDS011;5987;53.140;8.904;2022-12-11T12:53:47;40.70;;;20.27;;
11854;SDS011;5987;53.140;8.904;2022-12-11T12:56:58;39.60;;;20.30;;
11854;SDS011;5987;53.140;8.904;2022-12-11T13:00:06;31.80;;;17.50;;
11854;SDS011;5987;53.140;8.904;2022-12-11T13:03:14;32.40;;;15.37;;
11854;SDS011;5987;53.140;8.904;2022-12-11T13:06:28;31.57;;;16.07;;
11854;SDS011;5987;53.140;8.904;2022-12-11T13:09:38;33.60;;;15.33;;
11854;SDS011;5987;53.140;8.904;2022-12-11T13:12:44;33.17;;;15.77;;
11854;SDS011;5987;53.140;8.904;2022-12-11T13:15:48;35.93;;;16.43;;
11854;SDS011;5987;53.140;8.904;2022-12-11T13:18:52;29.37;;;15.40;;
11854;SDS011;5987;53.140;8.904;2022-12-11T13:21:56;28.20;;;15.37;;
11854;SDS011;5987;53.140;8.904;2022-12-11T13:25:15;33.30;;;16.47;;
11854;SDS011;5987;53.140;8.904;2022-12-11T13:28:27;28.77;;;13.93;;
11854;SDS011;5987;53.140;8.904;2022-12-11T13:31:35;30.53;;;15.63;;
11854;SDS011;5987;53.140;8.904;2022-12-11T13:34:49;28.77;;;15.73;;
11854;SDS011;5987;53.140;8.904;2022-12-11T13:37:59;29.20;;;15.13;;
11854;SDS011;5987;53.140;8.904;2022-12-11T13:41:09;29.20;;;15.30;;
11854;SDS011;5987;53.140;8.904;2022-12-11T13:44:17;30.30;;;15.57;;
11854;SDS011;5987;53.140;8.904;2022-12-11T13:47:26;29.03;;;15.93;;
11854;SDS011;5987;53.140;8.904;2022-12-11T13:50:33;38.60;;;21.47;;
11854;SDS011;5987;53.140;8.904;2022-12-11T13:53:38;42.30;;;21.67;;
11854;SDS011;5987;53.140;8.904;2022-12-11T13:56:51;84.40;;;46.73;;
11854;SDS011;5987;53.140;8.904;2022-12-11T14:00:03;48.60;;;24.43;;
11854;SDS011;5987;53.140;8.904;2022-12-11T14:03:20;37.37;;;17.37;;
11854;SDS011;5987;53.140;8.904;2022-12-11T14:06:25;31.70;;;16.30;;
11854;SDS011;5987;53.140;8.904;2022-12-11T14:09:31;27.13;;;15.47;;
11854;SDS011;5987;53.140;8.904;2022-12-11T14:12:35;37.23;;;17.57;;
11854;SDS011;5987;53.140;8.904;2022-12-11T14:15:41;27.00;;;14.97;;
11854;SDS011;5987;53.140;8.904;2022-12-11T14:18:47;33.70;;;20.30;;
11854;SDS011;5987;53.140;8.904;2022-12-11T14:21:54;33.53;;;17.77;;
11854;SDS011;5987;53.140;8.904;2022-12-11T14:25:12;32.83;;;16.83;;
11854;SDS011;5987;53.140;8.904;2022-12-11T14:28:23;34.47;;;16.57;;
11854;SDS011;5987;53.140;8.904;2022-12-11T14:31:33;31.53;;;15.03;;
11854;SDS011;5987;53.140;8.904;2022-12-11T14:34:43;33.17;;;16.57;;
11854;SDS011;5987;53.140;8.904;2022-12-11T14:37:50;35.07;;;19.33;;
11854;SDS011;5987;53.140;8.904;2022-12-11T14:40:57;33.53;;;17.97;;
11854;SDS011;5987;53.140;8.904;2022-12-11T14:44:15;43.20;;;24.40;;
11854;SDS011;5987;53.140;8.904;2022-12-11T14:47:24;46.83;;;25.10;;
11854;SDS011;5987;53.140;8.904;2022-12-11T14:50:33;39.90;;;22.53;;
11854;SDS011;5987;53.140;8.904;2022-12-11T14:53:43;38.33;;;20.93;;
11854;SDS011;5987;53.140;8.904;2022-12-11T14:56:51;60.07;;;32.47;;
11854;SDS011;5987;53.140;8.904;2022-12-11T14:59:56;39.63;;;23.80;;
11854;SDS011;5987;53.140;8.904;2022-12-11T15:03:03;44.43;;;23.40;;
11854;SDS011;5987;53.140;8.904;2022-12-11T15:06:20;36.43;;;21.83;;
11854;SDS011;5987;53.140;8.904;2022-12-11T15:09:35;33.17;;;18.07;;
11854;SDS011;5987;53.140;8.904;2022-12-11T15:12:42;32.17;;;18.73;;
11854;SDS011;5987;53.140;8.904;2022-12-11T15:15:47;36.13;;;17.57;;
11854;SDS011;5987;53.140;8.904;2022-12-11T15:18:53;28.33;;;15.57;;
11854;SDS011;5987;53.140;8.904;2022-12-11T15:22:00;40.80;;;21.13;;
11854;SDS011;5987;53.140;8.904;2022-12-11T15:25:15;131.13;;;67.77;;
11854;SDS011;5987;53.140;8.904;2022-12-11T15:28:27;77.97;;;53.90;;
11854;SDS011;5987;53.140;8.904;2022-12-11T15:31:33;70.97;;;47.90;;
11854;SDS011;5987;53.140;8.904;2022-12-11T15:34:42;85.57;;;56.63;;
11854;SDS011;5987;53.140;8.904;2022-12-11T15:37:50;74.03;;;49.03;;
11854;SDS011;5987;53.140;8.904;2022-12-11T15:40:56;55.43;;;31.73;;
11854;SDS011;5987;53.140;8.904;2022-12-11T15:44:00;40.83;;;23.13;;
11854;SDS011;5987;53.140;8.904;2022-12-11T15:47:10;48.23;;;29.43;;
11854;SDS011;5987;53.140;8.904;2022-12-11T15:50:19;41.43;;;22.60;;
11854;SDS011;5987;53.140;8.904;2022-12-11T15:53:25;49.43;;;29.17;;
11854;SDS011;5987;53.140;8.904;2022-12-11T15:56:28;124.23;;;67.03;;
11854;SDS011;5987;53.140;8.904;2022-12-11T15:59:32;62.17;;;40.23;;
11854;SDS011;5987;53.140;8.904;2022-12-11T16:02:36;64.47;;;38.73;;
11854;SDS011;5987;53.140;8.904;2022-12-11T16:05:41;31.10;;;18.17;;
11854;SDS011;5987;53.140;8.904;2022-12-11T16:08:45;45.83;;;32.83;;
11854;SDS011;5987;53.140;8.904;2022-12-11T16:11:48;33.33;;;21.07;;
11854;SDS011;5987;53.140;8.904;2022-12-11T16:14:52;31.77;;;19.07;;
11854;SDS011;5987;53.140;8.904;2022-12-11T16:17:59;40.83;;;23.93;;
11854;SDS011;5987;53.140;8.904;2022-12-11T16:21:06;37.37;;;21.37;;
11854;SDS011;5987;53.140;8.904;2022-12-11T16:24:09;41.63;;;23.90;;
11854;SDS011;5987;53.140;8.904;2022-12-11T16:27:13;39.13;;;25.53;;
11854;SDS011;5987;53.140;8.904;2022-12-11T16:30:23;38.93;;;19.73;;
11854;SDS011;5987;53.140;8.904;2022-12-11T16:33:29;40.23;;;23.30;;
11854;SDS011;5987;53.140;8.904;2022-12-11T16:36:34;42.33;;;24.17;;
11854;SDS011;5987;53.140;8.904;2022-12-11T16:39:38;39.17;;;19.50;;
11854;SDS011;5987;53.140;8.904;2022-12-11T16:42:43;34.90;;;17.43;;
11854;SDS011;5987;53.140;8.904;2022-12-11T16:45:47;39.43;;;22.00;;
11854;SDS011;5987;53.140;8.904;2022-12-11T16:48:57;35.70;;;20.37;;
11854;SDS011;5987;53.140;8.904;2022-12-11T16:52:02;34.53;;;17.97;;
11854;SDS011;5987;53.140;8.904;2022-12-11T16:55:06;38.33;;;20.47;;
11854;SDS011;5987;53.140;8.904;2022-12-11T16:58:12;36.77;;;19.50;;
11854;SDS011;5987;53.140;8.904;2022-12-11T17:01:20;40.53;;;18.97;;
11854;SDS011;5987;53.140;8.904;2022-12-11T17:04:25;43.37;;;23.17;;
11854;SDS011;5987;53.140;8.904;2022-12-11T17:07:31;37.83;;;19.10;;
11854;SDS011;5987;53.140;8.904;2022-12-11T17:10:37;34.70;;;16.87;;
11854;SDS011;5987;53.140;8.904;2022-12-11T17:13:42;33.37;;;18.77;;
11854;SDS011;5987;53.140;8.904;2022-12-11T17:16:47;47.37;;;25.50;;
11854;SDS011;5987;53.140;8.904;2022-12-11T17:19:51;40.90;;;22.77;;
11854;SDS011;5987;53.140;8.904;2022-12-11T17:22:56;36.17;;;19.10;;
11854;SDS011;5987;53.140;8.904;2022-12-11T17:26:00;45.03;;;27.67;;
11854;SDS011;5987;53.140;8.904;2022-12-11T17:29:04;34.47;;;18.60;;
11854;SDS011;5987;53.140;8.904;2022-12-11T17:32:08;34.63;;;17.43;;
11854;SDS011;5987;53.140;8.904;2022-12-11T17:35:13;35.13;;;21.17;;
11854;SDS011;5987;53.140;8.904;2022-12-11T17:38:18;32.20;;;18.03;;
11854;SDS011;5987;53.140;8.904;2022-12-11T17:41:21;36.93;;;17.97;;
11854;SDS011;5987;53.140;8.904;2022-12-11T17:44:25;37.77;;;18.83;;
11854;SDS011;5987;53.140;8.904;2022-12-11T17:47:31;36.47;;;19.43;;
11854;SDS011;5987;53.140;8.904;2022-12-11T17:50:37;37.70;;;22.00;;
11854;SDS011;5987;53.140;8.904;2022-12-11T17:53:44;35.73;;;19.87;;
11854;SDS011;5987;53.140;8.904;2022-12-11T17:56:48;33.70;;;18.43;;
11854;SDS011;5987;53.140;8.904;2022-12-11T17:59:52;32.60;;;19.07;;
11854;SDS011;5987;53.140;8.904;2022-12-11T18:02:56;43.77;;;19.27;;
11854;SDS011;5987;53.140;8.904;2022-12-11T18:06:02;40.17;;;17.57;;
11854;SDS011;5987;53.140;8.904;2022-12-11T18:09:10;36.67;;;19.00;;
11854;SDS011;5987;53.140;8.904;2022-12-11T18:12:13;129.23;;;67.57;;
11854;SDS011;5987;53.140;8.904;2022-12-11T18:15:26;43.43;;;26.13;;
11854;SDS011;5987;53.140;8.904;2022-12-11T18:18:30;45.77;;;23.83;;
11854;SDS011;5987;53.140;8.904;2022-12-11T18:21:35;49.40;;;26.07;;
11854;SDS011;5987;53.140;8.904;2022-12-11T18:24:44;46.23;;;26.73;;
11854;SDS011;5987;53.140;8.904;2022-12-11T18:27:48;77.43;;;46.20;;
11854;SDS011;5987;53.140;8.904;2022-12-11T18:30:52;62.13;;;36.27;;
11854;SDS011;5987;53.140;8.904;2022-12-11T18:33:56;62.47;;;34.30;;